Time,TemperatureF,DewpointF,PressureIn,WindDirection,WindDirectionDegrees,WindSpeedMPH,WindSpeedGustMPH,Humidity,HourlyPrecipIn,Conditions,Clouds,dailyrainin,SoftwareType,DateUTC
2013-04-08 00:00:00,49.8,44.9,30.10,North,0,1.6,3.1,78,0.00,,,0.00,fowsr,2013-04-08 04:00:00,
2013-04-08 00:05:00,49.6,44.7,30.10,NW,315,2.2,3.1,78,0.00,,,0.00,fowsr,2013-04-08 04:05:00,
2013-04-08 00:10:00,49.6,44.7,30.10,North,0,0.7,2.2,78,0.00,,,0.00,fowsr,2013-04-08 04:10:00,
2013-04-08 00:15:00,49.5,44.8,30.10,North,0,2.2,3.1,79,0.00,,,0.00,fowsr,2013-04-08 04:15:00,
2013-04-08 00:20:00,49.5,44.8,30.10,North,0,2.2,3.8,79,0.00,,,0.00,fowsr,2013-04-08 04:20:00,
2013-04-08 00:25:00,49.5,44.8,30.10,NW,315,1.6,2.2,79,0.00,,,0.00,fowsr,2013-04-08 04:25:00,
2013-04-08 00:30:00,49.3,44.6,30.10,North,0,2.2,3.8,79,0.00,,,0.00,fowsr,2013-04-08 04:30:00,
2013-04-08 00:40:00,49.5,44.8,30.10,West,270,1.6,2.2,79,0.00,,,0.00,fowsr,2013-04-08 04:40:00,
2013-04-08 00:45:00,49.6,44.7,30.09,NW,315,1.6,3.1,78,0.00,,,0.00,fowsr,2013-04-08 04:45:00,
2013-04-08 00:50:00,49.8,44.9,30.09,North,0,1.6,3.1,78,0.00,,,0.00,fowsr,2013-04-08 04:50:00,
2013-04-08 00:55:00,50.0,44.6,30.09,NE,45,1.6,3.1,76,0.00,,,0.00,fowsr,2013-04-08 04:55:00,
2013-04-08 01:00:00,50.0,44.6,30.09,North,0,2.2,3.1,76,0.00,,,0.00,fowsr,2013-04-08 05:00:00,
2013-04-08 01:05:00,50.2,44.7,30.09,North,0,2.2,3.8,76,0.00,,,0.00,fowsr,2013-04-08 05:05:00,
2013-04-08 01:10:00,50.0,44.3,30.09,NNW,337,2.2,3.1,75,0.00,,,0.00,fowsr,2013-04-08 05:10:00,
2013-04-08 01:15:00,50.0,44.3,30.09,NW,315,2.2,3.8,75,0.00,,,0.00,fowsr,2013-04-08 05:15:00,
2013-04-08 01:20:00,50.0,44.3,30.09,North,0,1.6,3.1,75,0.00,,,0.00,fowsr,2013-04-08 05:20:00,
2013-04-08 01:25:00,50.5,44.8,30.09,North,0,2.2,4.5,75,0.00,,,0.00,fowsr,2013-04-08 05:25:00,
2013-04-08 01:35:00,50.7,44.7,30.09,North,0,2.2,3.8,74,0.00,,,0.00,fowsr,2013-04-08 05:35:00,
2013-04-08 01:45:00,51.1,44.8,30.08,North,0,1.6,2.2,73,0.00,,,0.00,fowsr,2013-04-08 05:45:00,
2013-04-08 01:50:00,51.3,45.0,30.09,NW,315,1.6,3.1,73,0.00,,,0.00,fowsr,2013-04-08 05:50:00,
2013-04-08 02:00:00,51.3,45.0,30.08,NNE,22,1.6,2.2,73,0.00,,,0.00,fowsr,2013-04-08 06:00:00,
2013-04-08 02:05:00,51.3,45.0,30.08,North,0,1.6,2.2,73,0.00,,,0.00,fowsr,2013-04-08 06:05:00,
2013-04-08 02:15:00,51.6,45.3,30.08,NW,315,2.2,3.8,73,0.00,,,0.00,fowsr,2013-04-08 06:15:00,
2013-04-08 02:20:00,51.8,45.0,30.08,North,0,1.6,5.4,71,0.00,,,0.00,fowsr,2013-04-08 06:20:00,
2013-04-08 02:25:00,52.2,45.0,30.08,WNW,292,3.8,5.4,70,0.00,,,0.00,fowsr,2013-04-08 06:25:00,
2013-04-08 02:30:00,52.7,45.3,30.07,NW,315,3.1,4.5,69,0.00,,,0.00,fowsr,2013-04-08 06:30:00,
2013-04-08 02:35:00,52.7,45.3,30.07,NW,315,3.1,4.5,69,0.00,,,0.00,fowsr,2013-04-08 06:35:00,
2013-04-08 02:40:00,54.0,45.3,30.07,NE,45,3.1,4.5,65,0.00,,,0.00,fowsr,2013-04-08 06:40:00,
2013-04-08 02:45:00,54.1,45.5,30.07,NW,315,3.1,4.5,65,0.00,,,0.00,fowsr,2013-04-08 06:45:00,
2013-04-08 02:50:00,54.3,45.6,30.07,NE,45,5.4,7.6,65,0.00,,,0.00,fowsr,2013-04-08 06:50:00,
2013-04-08 02:55:00,54.5,45.8,30.06,NNE,22,5.4,9.8,65,0.00,,,0.00,fowsr,2013-04-08 06:55:00,
2013-04-08 03:00:00,54.3,45.6,30.06,North,0,3.1,4.5,65,0.00,,,0.00,fowsr,2013-04-08 07:00:00,
2013-04-08 03:05:00,54.3,45.6,30.06,North,0,3.8,9.2,65,0.00,,,0.00,fowsr,2013-04-08 07:05:00,
2013-04-08 03:10:00,54.1,45.8,30.06,East,90,3.1,4.5,66,0.00,,,0.00,fowsr,2013-04-08 07:10:00,
2013-04-08 03:20:00,54.1,45.8,30.06,North,0,2.2,4.5,66,0.00,,,0.00,fowsr,2013-04-08 07:20:00,
2013-04-08 03:25:00,54.0,45.9,30.06,North,0,4.5,6.0,67,0.00,,,0.00,fowsr,2013-04-08 07:25:00,
2013-04-08 03:30:00,54.0,45.9,30.06,North,0,3.1,4.5,67,0.00,,,0.00,fowsr,2013-04-08 07:30:00,
2013-04-08 03:35:00,53.8,46.0,30.06,NW,315,4.5,7.6,68,0.00,,,0.00,fowsr,2013-04-08 07:35:00,
2013-04-08 03:40:00,53.6,45.8,30.06,NE,45,6.0,9.8,68,0.00,,,0.00,fowsr,2013-04-08 07:40:00,
2013-04-08 03:45:00,53.6,46.1,30.06,North,0,3.1,6.0,69,0.00,,,0.00,fowsr,2013-04-08 07:45:00,
2013-04-08 03:50:00,53.4,46.5,30.06,East,90,3.1,6.9,71,0.00,,,0.00,fowsr,2013-04-08 07:50:00,
2013-04-08 03:55:00,53.2,46.6,30.06,East,90,2.2,4.5,72,0.00,,,0.00,fowsr,2013-04-08 07:55:00,
2013-04-08 04:00:00,53.4,46.8,30.06,NE,45,4.5,7.6,72,0.00,,,0.00,fowsr,2013-04-08 08:00:00,
2013-04-08 04:10:00,53.6,46.7,30.06,NE,45,2.2,5.4,71,0.00,,,0.00,fowsr,2013-04-08 08:10:00,
2013-04-08 04:15:00,53.4,46.8,30.06,NW,315,3.8,4.5,72,0.00,,,0.00,fowsr,2013-04-08 08:15:00,
2013-04-08 04:20:00,53.1,46.4,30.06,NE,45,3.1,6.0,72,0.00,,,0.00,fowsr,2013-04-08 08:20:00,
2013-04-08 04:25:00,52.9,46.5,30.07,NE,45,4.5,8.3,73,0.00,,,0.00,fowsr,2013-04-08 08:25:00,
2013-04-08 04:30:00,52.9,46.5,30.07,NE,45,3.8,6.9,73,0.00,,,0.00,fowsr,2013-04-08 08:30:00,
2013-04-08 04:35:00,52.7,46.4,30.07,NE,45,3.1,6.9,73,0.00,,,0.00,fowsr,2013-04-08 08:35:00,
2013-04-08 04:40:00,52.5,46.2,30.07,East,90,3.1,4.5,73,0.00,,,0.00,fowsr,2013-04-08 08:40:00,
2013-04-08 04:45:00,52.5,46.5,30.07,ENE,67,3.1,5.4,74,0.00,,,0.00,fowsr,2013-04-08 08:45:00,
2013-04-08 04:50:00,52.3,46.3,30.07,North,0,2.2,4.5,74,0.00,,,0.00,fowsr,2013-04-08 08:50:00,
2013-04-08 04:55:00,52.3,46.3,30.07,NE,45,3.1,7.6,74,0.00,,,0.00,fowsr,2013-04-08 08:55:00,
2013-04-08 05:00:00,52.3,46.6,30.07,NE,45,2.2,4.5,75,0.00,,,0.00,fowsr,2013-04-08 09:00:00,
2013-04-08 05:10:00,52.5,46.7,30.07,North,0,1.6,3.1,75,0.00,,,0.00,fowsr,2013-04-08 09:10:00,
2013-04-08 05:15:00,52.3,46.6,30.07,NE,45,2.2,3.8,75,0.00,,,0.00,fowsr,2013-04-08 09:15:00,
2013-04-08 05:20:00,52.5,46.7,30.07,NE,45,3.1,6.0,75,0.00,,,0.00,fowsr,2013-04-08 09:20:00,
2013-04-08 05:25:00,52.5,46.7,30.07,North,0,2.2,3.8,75,0.00,,,0.00,fowsr,2013-04-08 09:25:00,
2013-04-08 05:35:00,52.7,46.9,30.07,NW,315,3.1,4.5,75,0.00,,,0.00,fowsr,2013-04-08 09:35:00,
2013-04-08 05:45:00,52.7,46.9,30.07,NE,45,1.6,2.2,75,0.00,,,0.00,fowsr,2013-04-08 09:45:00,
2013-04-08 05:50:00,52.7,46.9,30.07,NE,45,1.6,3.8,75,0.00,,,0.00,fowsr,2013-04-08 09:50:00,
2013-04-08 05:55:00,52.7,46.9,30.07,North,0,1.6,3.8,75,0.00,,,0.00,fowsr,2013-04-08 09:55:00,
2013-04-08 06:05:00,52.7,46.9,30.08,North,0,1.6,2.2,75,0.00,,,0.00,fowsr,2013-04-08 10:05:00,
2013-04-08 06:10:00,52.7,47.2,30.08,North,0,1.6,3.8,76,0.00,,,0.00,fowsr,2013-04-08 10:10:00,
2013-04-08 06:20:00,52.7,46.9,30.08,NE,45,1.6,3.1,75,0.00,,,0.00,fowsr,2013-04-08 10:20:00,
2013-04-08 06:25:00,52.5,46.7,30.08,NE,45,1.6,3.8,75,0.00,,,0.00,fowsr,2013-04-08 10:25:00,
2013-04-08 06:30:00,52.5,47.0,30.08,NW,315,1.6,3.8,76,0.00,,,0.00,fowsr,2013-04-08 10:30:00,
2013-04-08 06:35:00,52.3,46.8,30.11,North,0,0.7,2.2,76,0.00,,,0.00,fowsr,2013-04-08 10:35:00,
2013-04-08 06:40:00,52.3,46.8,30.09,NE,45,0.7,1.6,76,0.00,,,0.00,fowsr,2013-04-08 10:40:00,
2013-04-08 06:45:00,52.3,46.8,30.09,North,0,1.6,2.2,76,0.00,,,0.00,fowsr,2013-04-08 10:45:00,
2013-04-08 06:55:00,52.3,46.8,30.10,North,0,0.7,1.6,76,0.00,,,0.00,fowsr,2013-04-08 10:55:00,
2013-04-08 07:00:00,52.3,46.8,30.10,NE,45,0.7,1.6,76,0.00,,,0.00,fowsr,2013-04-08 11:00:00,
2013-04-08 07:05:00,52.3,46.8,30.10,NW,315,0.7,3.1,76,0.00,,,0.00,fowsr,2013-04-08 11:05:00,
2013-04-08 07:15:00,52.5,47.0,30.11,North,0,0.7,2.2,76,0.00,,,0.00,fowsr,2013-04-08 11:15:00,
2013-04-08 07:25:00,52.9,47.3,30.11,North,0,1.6,3.1,76,0.00,,,0.00,fowsr,2013-04-08 11:25:00,
2013-04-08 07:35:00,53.2,47.7,30.12,North,0,1.6,3.1,76,0.00,,,0.00,fowsr,2013-04-08 11:35:00,
2013-04-08 07:40:00,53.4,47.6,30.12,North,0,1.6,2.2,75,0.00,,,0.00,fowsr,2013-04-08 11:40:00,
2013-04-08 07:45:00,53.8,47.7,30.11,NE,45,1.6,3.8,74,0.00,,,0.00,fowsr,2013-04-08 11:45:00,
2013-04-08 07:55:00,54.3,47.9,30.12,North,0,0.7,1.6,73,0.00,,,0.00,fowsr,2013-04-08 11:55:00,
2013-04-08 08:05:00,54.7,48.3,30.12,North,0,2.2,3.1,73,0.00,,,0.00,fowsr,2013-04-08 12:05:00,
2013-04-08 08:10:00,55.0,48.3,30.12,North,0,0.7,1.6,72,0.00,,,0.00,fowsr,2013-04-08 12:10:00,
2013-04-08 08:20:00,56.1,49.1,30.12,NE,45,1.6,2.2,71,0.00,,,0.00,fowsr,2013-04-08 12:20:00,
2013-04-08 08:25:00,56.7,49.3,30.14,NW,315,0.7,1.6,70,0.00,,,0.00,fowsr,2013-04-08 12:25:00,
2013-04-08 08:35:00,57.6,49.6,30.12,NE,45,1.6,2.2,68,0.00,,,0.00,fowsr,2013-04-08 12:35:00,
2013-04-08 08:40:00,57.9,49.6,30.12,East,90,2.2,3.8,67,0.00,,,0.00,fowsr,2013-04-08 12:40:00,
2013-04-08 08:45:00,58.1,49.5,30.12,NE,45,2.2,5.4,66,0.00,,,0.00,fowsr,2013-04-08 12:45:00,
2013-04-08 08:50:00,58.1,49.5,30.13,NE,45,5.4,6.9,66,0.00,,,0.00,fowsr,2013-04-08 12:50:00,
2013-04-08 08:55:00,58.3,49.7,30.13,NNE,22,2.2,4.5,66,0.00,,,0.00,fowsr,2013-04-08 12:55:00,
2013-04-08 09:05:00,59.0,49.7,30.12,NE,45,0.7,2.2,64,0.00,,,0.00,fowsr,2013-04-08 13:05:00,
2013-04-08 09:10:00,59.5,50.2,30.12,North,0,1.6,2.2,64,0.00,,,0.00,fowsr,2013-04-08 13:10:00,
2013-04-08 09:15:00,60.1,50.4,30.12,East,90,1.6,3.1,63,0.00,,,0.00,fowsr,2013-04-08 13:15:00,
2013-04-08 09:20:00,60.1,50.4,30.12,NW,315,1.6,3.1,63,0.00,,,0.00,fowsr,2013-04-08 13:20:00,
2013-04-08 09:25:00,60.3,50.6,30.12,NE,45,3.1,6.0,63,0.00,,,0.00,fowsr,2013-04-08 13:25:00,
2013-04-08 09:30:00,60.4,50.4,30.12,ENE,67,2.2,3.8,62,0.00,,,0.00,fowsr,2013-04-08 13:30:00,
2013-04-08 09:35:00,60.6,50.6,30.12,East,90,2.2,4.5,62,0.00,,,0.00,fowsr,2013-04-08 13:35:00,
2013-04-08 09:40:00,61.0,50.9,30.12,South,180,1.6,2.2,62,0.00,,,0.00,fowsr,2013-04-08 13:40:00,
2013-04-08 09:45:00,61.5,50.4,30.12,East,90,3.8,6.0,59,0.00,,,0.00,fowsr,2013-04-08 13:45:00,
2013-04-08 09:55:00,61.9,50.4,30.13,NE,45,3.1,4.5,58,0.00,,,0.00,fowsr,2013-04-08 13:55:00,
2013-04-08 10:00:00,61.9,50.4,30.13,NE,45,2.2,3.1,58,0.00,,,0.00,fowsr,2013-04-08 14:00:00,
2013-04-08 10:10:00,62.2,50.8,30.13,NE,45,2.2,3.1,58,0.00,,,0.00,fowsr,2013-04-08 14:10:00,
2013-04-08 10:15:00,62.6,50.4,30.13,North,0,2.2,3.8,56,0.00,,,0.00,fowsr,2013-04-08 14:15:00,
2013-04-08 10:20:00,62.6,50.0,30.13,WNW,292,3.1,4.5,55,0.00,,,0.00,fowsr,2013-04-08 14:20:00,
2013-04-08 10:25:00,63.0,50.3,30.14,NW,315,3.1,4.5,55,0.00,,,0.00,fowsr,2013-04-08 14:25:00,
2013-04-08 10:30:00,63.3,50.7,30.13,NW,315,3.1,3.8,55,0.00,,,0.00,fowsr,2013-04-08 14:30:00,
2013-04-08 10:35:00,63.9,51.2,30.13,East,90,2.2,3.8,55,0.00,,,0.00,fowsr,2013-04-08 14:35:00,
2013-04-08 10:45:00,64.6,51.5,30.13,NE,45,3.1,4.5,54,0.00,,,0.00,fowsr,2013-04-08 14:45:00,
2013-04-08 10:55:00,65.1,51.6,30.14,East,90,2.2,3.1,53,0.00,,,0.00,fowsr,2013-04-08 14:55:00,
2013-04-08 11:00:00,65.5,51.5,30.14,SE,135,3.1,6.0,52,0.00,,,0.00,fowsr,2013-04-08 15:00:00,
2013-04-08 11:05:00,65.1,51.2,30.14,East,90,1.6,3.8,52,0.00,,,0.00,fowsr,2013-04-08 15:05:00,
2013-04-08 11:15:00,65.1,50.8,30.13,SE,135,3.1,3.8,51,0.00,,,0.00,fowsr,2013-04-08 15:15:00,
2013-04-08 11:20:00,65.5,51.5,30.13,NE,45,3.1,6.0,52,0.00,,,0.00,fowsr,2013-04-08 15:20:00,
2013-04-08 11:25:00,66.2,51.4,30.13,NE,45,3.8,5.4,50,0.00,,,0.00,fowsr,2013-04-08 15:25:00,
2013-04-08 11:30:00,66.9,52.0,30.13,NE,45,3.8,6.9,50,0.00,,,0.00,fowsr,2013-04-08 15:30:00,
2013-04-08 11:40:00,67.6,51.8,30.13,East,90,2.2,3.1,48,0.00,,,0.00,fowsr,2013-04-08 15:40:00,
2013-04-08 11:45:00,67.5,51.7,30.13,East,90,3.1,4.5,48,0.00,,,0.00,fowsr,2013-04-08 15:45:00,
2013-04-08 11:55:00,67.6,52.3,30.13,NE,45,2.2,3.1,49,0.00,,,0.00,fowsr,2013-04-08 15:55:00,
2013-04-08 12:00:00,68.7,52.4,30.13,SE,135,2.2,4.5,47,0.00,,,0.00,fowsr,2013-04-08 16:00:00,
2013-04-08 12:05:00,68.7,51.9,30.13,SW,225,2.2,3.1,46,0.00,,,0.00,fowsr,2013-04-08 16:05:00,
2013-04-08 12:10:00,69.3,52.0,30.13,NE,45,3.1,5.4,45,0.00,,,0.00,fowsr,2013-04-08 16:10:00,
2013-04-08 12:20:00,69.8,52.0,30.13,North,0,3.1,4.5,44,0.00,,,0.00,fowsr,2013-04-08 16:20:00,
2013-04-08 12:25:00,70.0,52.1,30.13,East,90,1.6,4.5,44,0.00,,,0.00,fowsr,2013-04-08 16:25:00,
2013-04-08 12:35:00,70.3,52.0,30.12,East,90,2.2,4.5,43,0.00,,,0.00,fowsr,2013-04-08 16:35:00,
2013-04-08 12:45:00,70.9,52.9,30.12,East,90,2.2,3.8,44,0.00,,,0.00,fowsr,2013-04-08 16:45:00,
2013-04-08 12:50:00,71.2,53.3,30.11,East,90,1.6,3.8,44,0.00,,,0.00,fowsr,2013-04-08 16:50:00,
2013-04-08 12:55:00,72.1,53.1,30.11,NE,45,2.2,3.1,42,0.00,,,0.00,fowsr,2013-04-08 16:55:00,
2013-04-08 13:00:00,72.7,53.6,30.11,NE,45,1.6,2.2,42,0.00,,,0.00,fowsr,2013-04-08 17:00:00,
2013-04-08 13:10:00,73.4,53.2,30.11,NE,45,2.2,3.8,40,0.00,,,0.00,fowsr,2013-04-08 17:10:00,
2013-04-08 13:15:00,72.5,52.9,30.14,NW,315,1.6,2.2,41,0.00,,,0.00,fowsr,2013-04-08 17:15:00,
2013-04-08 13:25:00,72.5,53.9,30.11,North,0,1.6,3.1,43,0.00,,,0.00,fowsr,2013-04-08 17:25:00,
2013-04-08 13:30:00,72.3,53.7,30.11,North,0,1.6,3.1,43,0.00,,,0.00,fowsr,2013-04-08 17:30:00,
2013-04-08 13:35:00,72.0,53.4,30.11,NW,315,0.7,2.2,43,0.00,,,0.00,fowsr,2013-04-08 17:35:00,
2013-04-08 13:41:00,72.1,54.5,30.13,North,0,1.6,2.2,45,0.00,,,0.00,fowsr,2013-04-08 17:41:00,
2013-04-08 13:50:00,72.3,54.2,30.10,NW,315,2.2,3.8,44,0.00,,,0.00,fowsr,2013-04-08 17:50:00,
2013-04-08 14:00:00,72.3,54.2,30.10,NW,315,1.6,2.2,44,0.00,,,0.00,fowsr,2013-04-08 18:00:00,
2013-04-08 14:05:00,72.3,54.7,30.10,North,0,1.6,3.1,45,0.00,,,0.00,fowsr,2013-04-08 18:05:00,
2013-04-08 14:10:00,72.0,53.9,30.10,NW,315,1.6,3.1,44,0.00,,,0.00,fowsr,2013-04-08 18:10:00,
2013-04-08 14:15:00,71.4,53.9,30.09,North,0,3.1,4.5,45,0.00,,,0.00,fowsr,2013-04-08 18:15:00,
2013-04-08 14:25:00,70.9,54.7,30.09,North,0,1.6,3.1,48,0.00,,,0.00,fowsr,2013-04-08 18:25:00,
2013-04-08 14:30:00,71.2,54.6,30.09,North,0,1.6,3.1,47,0.00,,,0.00,fowsr,2013-04-08 18:30:00,
2013-04-08 14:35:00,71.6,54.5,30.09,NW,315,2.2,3.1,46,0.00,,,0.00,fowsr,2013-04-08 18:35:00,
2013-04-08 14:40:00,71.6,54.5,30.09,West,270,1.6,3.1,46,0.00,,,0.00,fowsr,2013-04-08 18:40:00,
2013-04-08 14:50:00,71.8,54.2,30.08,NW,315,2.2,3.1,45,0.00,,,0.00,fowsr,2013-04-08 18:50:00,
2013-04-08 14:55:00,70.9,54.3,30.09,West,270,2.2,3.8,47,0.00,,,0.00,fowsr,2013-04-08 18:55:00,
2013-04-08 15:00:00,70.0,53.9,30.09,NW,315,2.2,3.1,48,0.00,,,0.00,fowsr,2013-04-08 19:00:00,
2013-04-08 15:10:00,69.1,54.0,30.08,WSW,247,2.2,3.8,50,0.00,,,0.00,fowsr,2013-04-08 19:10:00,
2013-04-08 15:15:00,68.5,54.3,30.08,NW,315,1.6,2.2,52,0.00,,,0.00,fowsr,2013-04-08 19:15:00,
2013-04-08 15:20:00,68.5,54.7,30.08,West,270,1.6,4.5,53,0.00,,,0.00,fowsr,2013-04-08 19:20:00,
2013-04-08 15:25:00,68.7,54.5,30.08,NE,45,2.2,3.8,52,0.00,,,0.00,fowsr,2013-04-08 19:25:00,
2013-04-08 15:35:00,68.4,54.5,30.08,NW,315,2.2,3.8,53,0.00,,,0.00,fowsr,2013-04-08 19:35:00,
2013-04-08 15:40:00,68.2,54.4,30.07,NW,315,2.2,3.1,53,0.00,,,0.00,fowsr,2013-04-08 19:40:00,
2013-04-08 15:45:00,67.6,54.3,30.07,NW,315,2.2,3.1,54,0.00,,,0.00,fowsr,2013-04-08 19:45:00,
2013-04-08 15:50:00,66.9,54.0,30.07,North,0,2.2,4.5,55,0.00,,,0.00,fowsr,2013-04-08 19:50:00,
2013-04-08 16:00:00,66.2,53.3,30.07,NW,315,2.2,4.5,55,0.00,,,0.00,fowsr,2013-04-08 20:00:00,
2013-04-08 16:05:00,65.8,53.4,30.07,West,270,3.8,6.0,56,0.00,,,0.00,fowsr,2013-04-08 20:05:00,
2013-04-08 16:10:00,65.7,53.6,30.07,NW,315,3.8,6.9,57,0.00,,,0.00,fowsr,2013-04-08 20:10:00,
2013-04-08 16:15:00,65.8,54.1,30.07,NE,45,1.6,3.1,58,0.00,,,0.00,fowsr,2013-04-08 20:15:00,
2013-04-08 16:20:00,65.7,53.6,30.07,NW,315,1.6,3.1,57,0.00,,,0.00,fowsr,2013-04-08 20:20:00,
2013-04-08 16:25:00,65.5,53.4,30.07,West,270,2.2,4.5,57,0.00,,,0.00,fowsr,2013-04-08 20:25:00,
2013-04-08 16:30:00,65.3,53.6,30.07,North,0,2.2,3.8,58,0.00,,,0.00,fowsr,2013-04-08 20:30:00,
2013-04-08 16:35:00,65.1,53.4,30.07,NW,315,1.6,2.2,58,0.00,,,0.00,fowsr,2013-04-08 20:35:00,
2013-04-08 16:40:00,65.3,53.6,30.06,NW,315,3.1,3.8,58,0.00,,,0.00,fowsr,2013-04-08 20:40:00,
2013-04-08 16:45:00,65.5,53.8,30.09,West,270,2.2,3.8,58,0.00,,,0.00,fowsr,2013-04-08 20:45:00,
2013-04-08 16:55:00,66.2,54.1,30.07,North,0,2.2,3.1,57,0.00,,,0.00,fowsr,2013-04-08 20:55:00,
2013-04-08 17:00:00,66.6,54.0,30.06,North,0,2.2,3.8,56,0.00,,,0.00,fowsr,2013-04-08 21:00:00,
2013-04-08 17:05:00,66.6,53.7,30.06,North,0,2.2,3.8,55,0.00,,,0.00,fowsr,2013-04-08 21:05:00,
2013-04-08 17:10:00,66.2,53.7,30.06,North,0,4.5,6.0,56,0.00,,,0.00,fowsr,2013-04-08 21:10:00,
2013-04-08 17:15:00,66.2,53.7,30.07,NW,315,3.1,4.5,56,0.00,,,0.00,fowsr,2013-04-08 21:15:00,
2013-04-08 17:20:00,66.6,54.0,30.06,NW,315,3.1,3.8,56,0.00,,,0.00,fowsr,2013-04-08 21:20:00,
2013-04-08 17:25:00,66.6,53.7,30.06,NW,315,2.2,3.8,55,0.00,,,0.00,fowsr,2013-04-08 21:25:00,
2013-04-08 17:30:00,66.4,53.9,30.06,NE,45,2.2,3.1,56,0.00,,,0.00,fowsr,2013-04-08 21:30:00,
2013-04-08 17:35:00,66.6,54.0,30.06,North,0,1.6,3.1,56,0.00,,,0.00,fowsr,2013-04-08 21:35:00,
2013-04-08 17:40:00,66.6,54.0,30.05,North,0,3.8,4.5,56,0.00,,,0.00,fowsr,2013-04-08 21:40:00,
2013-04-08 17:45:00,66.4,53.9,30.06,North,0,3.1,3.8,56,0.00,,,0.00,fowsr,2013-04-08 21:45:00,
2013-04-08 17:50:00,66.4,54.2,30.06,NW,315,2.2,3.1,57,0.00,,,0.00,fowsr,2013-04-08 21:50:00,
2013-04-08 18:00:00,66.0,53.9,30.05,East,90,3.1,6.0,57,0.00,,,0.00,fowsr,2013-04-08 22:00:00,
2013-04-08 18:05:00,65.7,53.6,30.06,SW,225,1.6,3.1,57,0.00,,,0.00,fowsr,2013-04-08 22:05:00,
2013-04-08 18:10:00,65.7,53.9,30.05,North,0,2.2,4.5,58,0.00,,,0.00,fowsr,2013-04-08 22:10:00,
2013-04-08 18:15:00,65.5,53.8,30.05,NW,315,2.2,4.5,58,0.00,,,0.00,fowsr,2013-04-08 22:15:00,
2013-04-08 18:20:00,65.3,53.6,30.05,NW,315,3.1,4.5,58,0.00,,,0.00,fowsr,2013-04-08 22:20:00,
2013-04-08 18:30:00,64.2,53.3,30.05,NW,315,3.8,5.4,60,0.00,,,0.00,fowsr,2013-04-08 22:30:00,
2013-04-08 18:35:00,62.6,52.1,30.05,North,0,4.5,7.6,61,0.00,,,0.00,fowsr,2013-04-08 22:35:00,
2013-04-08 18:40:00,61.7,51.9,30.05,North,0,3.1,3.8,63,0.00,,,0.00,fowsr,2013-04-08 22:40:00,
2013-04-08 18:50:00,60.4,51.7,30.06,North,0,2.2,4.5,66,0.00,,,0.00,fowsr,2013-04-08 22:50:00,
2013-04-08 18:55:00,59.5,51.2,30.06,NW,315,2.2,4.5,67,0.00,,,0.00,fowsr,2013-04-08 22:55:00,
2013-04-08 19:00:00,59.2,50.8,30.06,West,270,1.6,3.1,67,0.00,,,0.00,fowsr,2013-04-08 23:00:00,
2013-04-08 19:10:00,58.6,51.5,30.06,North,0,1.6,3.1,71,0.00,,,0.00,fowsr,2013-04-08 23:10:00,
2013-04-08 19:15:00,59.4,52.2,30.06,NW,315,3.1,3.8,71,0.00,,,0.00,fowsr,2013-04-08 23:15:00,
2013-04-08 19:20:00,59.9,52.4,30.06,NW,315,3.1,4.5,70,0.00,,,0.00,fowsr,2013-04-08 23:20:00,
2013-04-08 19:25:00,60.6,52.8,30.06,North,0,2.2,4.5,69,0.00,,,0.00,fowsr,2013-04-08 23:25:00,
2013-04-08 19:35:00,61.5,53.3,30.06,NW,315,3.8,5.4,68,0.00,,,0.00,fowsr,2013-04-08 23:35:00,
2013-04-08 19:40:00,62.1,53.8,30.06,NW,315,3.1,4.5,68,0.00,,,0.00,fowsr,2013-04-08 23:40:00,
2013-04-08 19:45:00,62.4,53.9,30.06,North,0,3.1,4.5,67,0.00,,,0.00,fowsr,2013-04-08 23:45:00,
2013-04-08 19:50:00,62.4,53.9,30.06,NW,315,3.1,4.5,67,0.00,,,0.00,fowsr,2013-04-08 23:50:00,
2013-04-08 19:55:00,62.4,53.9,30.06,West,270,3.8,6.0,67,0.00,,,0.00,fowsr,2013-04-08 23:55:00,
2013-04-08 20:00:00,62.4,53.6,30.06,North,0,3.1,5.4,66,0.00,,,0.00,fowsr,2013-04-09 00:00:00,
2013-04-08 20:05:00,62.1,53.2,30.06,NE,45,3.8,5.4,66,0.00,,,0.00,fowsr,2013-04-09 00:05:00,
2013-04-08 20:10:00,61.7,53.2,30.06,North,0,3.1,3.8,67,0.00,,,0.00,fowsr,2013-04-09 00:10:00,
2013-04-08 20:15:00,61.3,52.9,30.06,North,0,3.1,4.5,67,0.00,,,0.00,fowsr,2013-04-09 00:15:00,
2013-04-08 20:20:00,61.0,52.5,30.06,NW,315,2.2,3.8,67,0.00,,,0.00,fowsr,2013-04-09 00:20:00,
2013-04-08 20:25:00,60.4,52.3,30.06,North,0,2.2,3.8,68,0.00,,,0.00,fowsr,2013-04-09 00:25:00,
2013-04-08 20:35:00,59.7,51.9,30.06,NW,315,3.1,5.4,69,0.00,,,0.00,fowsr,2013-04-09 00:35:00,
2013-04-08 20:40:00,59.5,52.1,30.06,West,270,2.2,3.8,70,0.00,,,0.00,fowsr,2013-04-09 00:40:00,
2013-04-08 20:50:00,59.4,52.2,30.06,NW,315,2.2,3.8,71,0.00,,,0.00,fowsr,2013-04-09 00:50:00,
2013-04-08 20:55:00,58.8,51.9,30.07,North,0,1.6,3.1,72,0.00,,,0.00,fowsr,2013-04-09 00:55:00,
2013-04-08 21:00:00,58.5,51.9,30.07,North,0,3.8,6.0,73,0.00,,,0.00,fowsr,2013-04-09 01:00:00,
2013-04-08 21:10:00,58.5,52.2,30.07,NW,315,2.2,4.5,74,0.00,,,0.00,fowsr,2013-04-09 01:10:00,
2013-04-08 21:20:00,58.5,52.2,30.07,NW,315,2.2,3.8,74,0.00,,,0.00,fowsr,2013-04-09 01:20:00,
2013-04-08 21:25:00,58.5,52.2,30.07,North,0,2.2,3.8,74,0.00,,,0.00,fowsr,2013-04-09 01:25:00,
2013-04-08 21:30:00,58.3,52.0,30.08,NE,45,3.8,6.0,74,0.00,,,0.00,fowsr,2013-04-09 01:30:00,
2013-04-08 21:35:00,58.5,52.2,30.08,NW,315,3.1,6.0,74,0.00,,,0.00,fowsr,2013-04-09 01:35:00,
2013-04-08 21:40:00,58.5,52.4,30.08,NE,45,3.8,5.4,75,0.00,,,0.00,fowsr,2013-04-09 01:40:00,
2013-04-08 21:50:00,59.2,52.6,30.08,NE,45,3.8,6.0,73,0.00,,,0.00,fowsr,2013-04-09 01:50:00,
2013-04-08 22:00:00,59.5,52.6,30.08,North,0,4.5,10.7,72,0.00,,,0.00,fowsr,2013-04-09 02:00:00,
2013-04-08 22:05:00,59.4,52.2,30.08,North,0,3.1,4.5,71,0.00,,,0.00,fowsr,2013-04-09 02:05:00,
2013-04-08 22:15:00,58.8,51.9,30.08,North,0,3.1,4.5,72,0.00,,,0.00,fowsr,2013-04-09 02:15:00,
2013-04-08 22:25:00,58.8,52.2,30.08,NW,315,3.8,5.4,73,0.00,,,0.00,fowsr,2013-04-09 02:25:00,
2013-04-08 22:30:00,58.8,52.2,30.07,NW,315,3.8,5.4,73,0.00,,,0.00,fowsr,2013-04-09 02:30:00,
2013-04-08 22:35:00,58.8,52.2,30.07,NW,315,5.4,7.6,73,0.00,,,0.00,fowsr,2013-04-09 02:35:00,
2013-04-08 22:40:00,58.6,51.8,30.07,North,0,3.8,6.9,72,0.00,,,0.00,fowsr,2013-04-09 02:40:00,
2013-04-08 22:50:00,58.5,51.9,30.07,NW,315,3.1,5.4,73,0.00,,,0.00,fowsr,2013-04-09 02:50:00,
2013-04-08 22:55:00,58.3,51.7,30.07,North,0,3.8,7.6,73,0.00,,,0.00,fowsr,2013-04-09 02:55:00,
2013-04-08 23:00:00,58.1,51.5,30.09,North,0,3.8,6.0,73,0.00,,,0.00,fowsr,2013-04-09 03:00:00,
2013-04-08 23:10:00,57.4,51.1,30.07,North,0,2.2,3.8,74,0.00,,,0.00,fowsr,2013-04-09 03:10:00,
2013-04-08 23:15:00,57.0,51.1,30.07,NW,315,3.1,3.8,75,0.00,,,0.00,fowsr,2013-04-09 03:15:00,
2013-04-08 23:20:00,56.7,51.0,30.07,North,0,3.1,4.5,76,0.00,,,0.00,fowsr,2013-04-09 03:20:00,
2013-04-08 23:30:00,56.5,51.1,30.07,NW,315,3.1,4.5,77,0.00,,,0.00,fowsr,2013-04-09 03:30:00,
2013-04-08 23:35:00,56.7,51.2,30.06,North,0,2.2,3.8,77,0.00,,,0.00,fowsr,2013-04-09 03:35:00,
2013-04-08 23:40:00,56.7,51.2,30.06,North,0,3.8,4.5,77,0.00,,,0.00,fowsr,2013-04-09 03:40:00,
2013-04-08 23:45:00,56.7,51.2,30.06,NW,315,3.1,4.5,77,0.00,,,0.00,fowsr,2013-04-09 03:45:00,
2013-04-08 23:50:00,56.7,51.5,30.06,North,0,2.2,4.5,78,0.00,,,0.00,fowsr,2013-04-09 03:50:00,
2013-04-08 23:55:00,56.7,51.5,30.06,NW,315,2.2,3.8,78,0.00,,,0.00,fowsr,2013-04-09 03:55:00,